PT-0139 weather

Regimento Artilharia military airfield
Vendas Novas, √Čvora District, Portugal

Public forecast

Using degrees Celsius for public forecast. Weather courtesy of forecast.io.

Closest aviation weather report (METAR) to Regimento Artilharia military airfield

Closest report is Montijo Air Base, 27.8 nm (51.5 km) W. Retrieved 2019/12/10 18:00 UTC (29 minutes ago):

LPMT 101800Z 36003KT CAVOK 09/08 Q1027

Closest aviation forecast (TAF) to Regimento Artilharia military airfield

Closest forecast is Montijo Air Base, 27.8 nm (51.5 km) W. Retrieved 2019/12/10 18:21 UTC (8 minutes ago):

TAF LPMT 101712Z 1018/1118 VRB02KT CAVOK BECMG 1102/1105 25008KT 8000 SCT008 BKN016 TEMPO 1103/1107 4000 -DZRA BR BKN006 BKN012 PROB30 TEMPO 1105/1107 2000 DZRA BR BKN004 BKN008 BECMG 1106/1108 35012KT 9999 SCT014 SCT018 TEMPO 1108/1117 35015G25KT